sensor_id;sensor_type;location;lat;lon;timestamp;pressure;altitude;pressure_sealevel;temperature;humidity
54882;BME280;40775;51.448;4.742;2023-04-04T00:00:33;102840.06;;;4.78;100.00
54882;BME280;40775;51.448;4.742;2023-04-04T00:03:00;102836.19;;;4.73;100.00
54882;BME280;40775;51.448;4.742;2023-04-04T00:05:28;102834.50;;;4.74;100.00
54882;BME280;40775;51.448;4.742;2023-04-04T00:07:55;102829.53;;;4.77;100.00
54882;BME280;40775;51.448;4.742;2023-04-04T00:10:22;102828.41;;;4.73;100.00
54882;BME280;40775;51.448;4.742;2023-04-04T00:12:49;102830.88;;;4.72;100.00
54882;BME280;40775;51.448;4.742;2023-04-04T00:15:16;102841.06;;;4.69;100.00
54882;BME280;40775;51.448;4.742;2023-04-04T00:17:43;102837.19;;;4.63;100.00
54882;BME280;40775;51.448;4.742;2023-04-04T00:20:10;102838.50;;;4.47;100.00
54882;BME280;40775;51.448;4.742;2023-04-04T00:22:37;102844.25;;;4.43;100.00
54882;BME280;40775;51.448;4.742;2023-04-04T00:25:05;102845.06;;;4.42;100.00
54882;BME280;40775;51.448;4.742;2023-04-04T00:27:32;102855.75;;;4.34;100.00
54882;BME280;40775;51.448;4.742;2023-04-04T00:29:59;102846.91;;;4.32;100.00
54882;BME280;40775;51.448;4.742;2023-04-04T00:32:26;102855.84;;;4.36;100.00
54882;BME280;40775;51.448;4.742;2023-04-04T00:34:53;102841.56;;;4.41;100.00
54882;BME280;40775;51.448;4.742;2023-04-04T00:37:20;102860.66;;;4.42;100.00
54882;BME280;40775;51.448;4.742;2023-04-04T00:39:47;102856.53;;;4.33;100.00
54882;BME280;40775;51.448;4.742;2023-04-04T00:42:15;102858.22;;;4.33;100.00
54882;BME280;40775;51.448;4.742;2023-04-04T00:44:42;102860.81;;;4.33;100.00
54882;BME280;40775;51.448;4.742;2023-04-04T00:47:09;102861.94;;;4.25;100.00
54882;BME280;40775;51.448;4.742;2023-04-04T00:49:37;102864.09;;;4.30;100.00
54882;BME280;40775;51.448;4.742;2023-04-04T00:52:04;102860.47;;;4.28;100.00
54882;BME280;40775;51.448;4.742;2023-04-04T00:54:34;102862.28;;;4.29;100.00
54882;BME280;40775;51.448;4.742;2023-04-04T00:57:02;102859.88;;;4.21;100.00
54882;BME280;40775;51.448;4.742;2023-04-04T00:59:32;102863.03;;;4.17;100.00
54882;BME280;40775;51.448;4.742;2023-04-04T01:01:59;102875.41;;;4.09;100.00
54882;BME280;40775;51.448;4.742;2023-04-04T01:04:27;102871.28;;;4.11;100.00
54882;BME280;40775;51.448;4.742;2023-04-04T01:06:57;102864.00;;;4.07;100.00
54882;BME280;40775;51.448;4.742;2023-04-04T01:09:26;102861.78;;;4.12;100.00
54882;BME280;40775;51.448;4.742;2023-04-04T01:11:54;102856.06;;;4.06;100.00
54882;BME280;40775;51.448;4.742;2023-04-04T01:14:22;102861.69;;;4.00;100.00
54882;BME280;40775;51.448;4.742;2023-04-04T01:16:50;102860.00;;;4.00;100.00
54882;BME280;40775;51.448;4.742;2023-04-04T01:19:35;102862.78;;;3.92;100.00
54882;BME280;40775;51.448;4.742;2023-04-04T01:22:03;102856.44;;;3.88;100.00
54882;BME280;40775;51.448;4.742;2023-04-04T01:24:35;102851.91;;;3.86;100.00
54882;BME280;40775;51.448;4.742;2023-04-04T01:27:03;102849.22;;;3.84;100.00
54882;BME280;40775;51.448;4.742;2023-04-04T01:29:30;102853.22;;;3.81;100.00
54882;BME280;40775;51.448;4.742;2023-04-04T01:32:26;102847.34;;;3.83;100.00
54882;BME280;40775;51.448;4.742;2023-04-04T01:35:35;102846.22;;;3.80;100.00
54882;BME280;40775;51.448;4.742;2023-04-04T01:40:49;102845.25;;;3.67;100.00
54882;BME280;40775;51.448;4.742;2023-04-04T01:43:18;102853.59;;;3.63;100.00
54882;BME280;40775;51.448;4.742;2023-04-04T01:45:45;102843.97;;;3.62;100.00
54882;BME280;40775;51.448;4.742;2023-04-04T01:48:12;102844.88;;;3.63;100.00
54882;BME280;40775;51.448;4.742;2023-04-04T01:50:42;102846.09;;;3.56;100.00
54882;BME280;40775;51.448;4.742;2023-04-04T01:53:09;102846.84;;;3.55;100.00
54882;BME280;40775;51.448;4.742;2023-04-04T01:55:36;102852.56;;;3.51;100.00
54882;BME280;40775;51.448;4.742;2023-04-04T01:58:03;102853.78;;;3.45;100.00
54882;BME280;40775;51.448;4.742;2023-04-04T02:00:30;102851.66;;;3.51;100.00
54882;BME280;40775;51.448;4.742;2023-04-04T02:02:57;102845.09;;;3.44;100.00
54882;BME280;40775;51.448;4.742;2023-04-04T02:05:25;102840.56;;;3.41;100.00
54882;BME280;40775;51.448;4.742;2023-04-04T02:07:52;102837.72;;;3.38;100.00
54882;BME280;40775;51.448;4.742;2023-04-04T02:10:19;102834.88;;;3.35;100.00
54882;BME280;40775;51.448;4.742;2023-04-04T02:12:46;102845.78;;;3.31;100.00
54882;BME280;40775;51.448;4.742;2023-04-04T02:15:14;102841.38;;;3.30;100.00
54882;BME280;40775;51.448;4.742;2023-04-04T02:17:45;102832.53;;;3.28;100.00
54882;BME280;40775;51.448;4.742;2023-04-04T02:20:13;102833.84;;;3.23;100.00
54882;BME280;40775;51.448;4.742;2023-04-04T02:22:41;102831.00;;;3.20;100.00
54882;BME280;40775;51.448;4.742;2023-04-04T02:25:08;102839.22;;;3.15;100.00
54882;BME280;40775;51.448;4.742;2023-04-04T02:27:35;102846.13;;;3.04;100.00
54882;BME280;40775;51.448;4.742;2023-04-04T02:30:02;102846.50;;;2.98;100.00
54882;BME280;40775;51.448;4.742;2023-04-04T02:32:29;102839.63;;;2.99;100.00
54882;BME280;40775;51.448;4.742;2023-04-04T02:34:56;102840.16;;;2.95;100.00
54882;BME280;40775;51.448;4.742;2023-04-04T02:37:23;102845.09;;;2.92;100.00
54882;BME280;40775;51.448;4.742;2023-04-04T02:39:50;102856.53;;;2.84;100.00
54882;BME280;40775;51.448;4.742;2023-04-04T02:42:17;102854.47;;;2.79;100.00
54882;BME280;40775;51.448;4.742;2023-04-04T02:44:44;102846.28;;;2.75;100.00
54882;BME280;40775;51.448;4.742;2023-04-04T02:47:11;102854.72;;;2.83;100.00
54882;BME280;40775;51.448;4.742;2023-04-04T02:49:38;102854.72;;;2.83;100.00
54882;BME280;40775;51.448;4.742;2023-04-04T02:52:05;102851.75;;;2.78;100.00
54882;BME280;40775;51.448;4.742;2023-04-04T02:54:34;102855.78;;;2.74;100.00
54882;BME280;40775;51.448;4.742;2023-04-04T02:57:01;102858.59;;;2.67;100.00
54882;BME280;40775;51.448;4.742;2023-04-04T02:59:28;102858.34;;;2.64;100.00
54882;BME280;40775;51.448;4.742;2023-04-04T03:01:55;102847.97;;;2.64;100.00
54882;BME280;40775;51.448;4.742;2023-04-04T03:04:22;102849.78;;;2.65;100.00
54882;BME280;40775;51.448;4.742;2023-04-04T03:06:49;102861.97;;;2.66;100.00
54882;BME280;40775;51.448;4.742;2023-04-04T03:09:16;102859.66;;;2.59;100.00
54882;BME280;40775;51.448;4.742;2023-04-04T03:11:43;102861.22;;;2.57;100.00
54882;BME280;40775;51.448;4.742;2023-04-04T03:14:10;102850.31;;;2.61;100.00
54882;BME280;40775;51.448;4.742;2023-04-04T03:16:38;102849.53;;;2.62;100.00
54882;BME280;40775;51.448;4.742;2023-04-04T03:19:05;102851.34;;;2.63;100.00
54882;BME280;40775;51.448;4.742;2023-04-04T03:21:33;102853.16;;;2.54;100.00
54882;BME280;40775;51.448;4.742;2023-04-04T03:24:00;102843.06;;;2.57;100.00
54882;BME280;40775;51.448;4.742;2023-04-04T03:26:27;102839.31;;;2.54;100.00
54882;BME280;40775;51.448;4.742;2023-04-04T03:28:55;102837.09;;;2.58;100.00
54882;BME280;40775;51.448;4.742;2023-04-04T03:31:22;102837.50;;;2.53;100.00
54882;BME280;40775;51.448;4.742;2023-04-04T03:33:49;102834.34;;;2.46;100.00
54882;BME280;40775;51.448;4.742;2023-04-04T03:36:16;102835.28;;;2.47;100.00
54882;BME280;40775;51.448;4.742;2023-04-04T03:38:43;102844.59;;;2.45;100.00
54882;BME280;40775;51.448;4.742;2023-04-04T03:41:10;102835.28;;;2.47;100.00
54882;BME280;40775;51.448;4.742;2023-04-04T03:43:37;102827.78;;;2.50;100.00
54882;BME280;40775;51.448;4.742;2023-04-04T03:46:05;102823.47;;;2.40;100.00
54882;BME280;40775;51.448;4.742;2023-04-04T03:48:33;102829.19;;;2.36;100.00
54882;BME280;40775;51.448;4.742;2023-04-04T03:51:02;102820.22;;;2.33;100.00
54882;BME280;40775;51.448;4.742;2023-04-04T03:53:30;102815.56;;;2.29;100.00
54882;BME280;40775;51.448;4.742;2023-04-04T03:55:58;102819.47;;;2.34;100.00
54882;BME280;40775;51.448;4.742;2023-04-04T03:58:25;102817.91;;;2.26;100.00
54882;BME280;40775;51.448;4.742;2023-04-04T04:00:54;102814.53;;;2.27;100.00
54882;BME280;40775;51.448;4.742;2023-04-04T04:03:21;102818.28;;;2.30;100.00
54882;BME280;40775;51.448;4.742;2023-04-04T04:05:48;102822.56;;;2.30;100.00
54882;BME280;40775;51.448;4.742;2023-04-04T04:08:15;102819.19;;;2.31;100.00
54882;BME280;40775;51.448;4.742;2023-04-04T04:10:42;102818.81;;;2.26;100.00
54882;BME280;40775;51.448;4.742;2023-04-04T04:13:09;102822.06;;;2.24;100.00
54882;BME280;40775;51.448;4.742;2023-04-04T04:15:36;102821.50;;;2.17;100.00
54882;BME280;40775;51.448;4.742;2023-04-04T04:18:04;102821.25;;;2.14;100.00
54882;BME280;40775;51.448;4.742;2023-04-04T04:20:31;102820.22;;;2.12;100.00
54882;BME280;40775;51.448;4.742;2023-04-04T04:22:58;102823.56;;;2.11;100.00
54882;BME280;40775;51.448;4.742;2023-04-04T04:25:25;102829.16;;;2.06;100.00
54882;BME280;40775;51.448;4.742;2023-04-04T04:27:55;102842.09;;;2.06;100.00
54882;BME280;40775;51.448;4.742;2023-04-04T04:30:23;102845.06;;;2.00;100.00
54882;BME280;40775;51.448;4.742;2023-04-04T04:32:50;102846.63;;;1.98;100.00
54882;BME280;40775;51.448;4.742;2023-04-04T04:35:17;102844.03;;;1.98;100.00
54882;BME280;40775;51.448;4.742;2023-04-04T04:37:44;102848.03;;;1.95;100.00
54882;BME280;40775;51.448;4.742;2023-04-04T04:40:11;102844.41;;;1.93;100.00
54882;BME280;40775;51.448;4.742;2023-04-04T04:42:44;102841.41;;;1.88;100.00
54882;BME280;40775;51.448;4.742;2023-04-04T04:45:12;102842.69;;;1.83;100.00
54882;BME280;40775;51.448;4.742;2023-04-04T04:47:39;102848.13;;;1.86;100.00
54882;BME280;40775;51.448;4.742;2023-04-04T04:50:07;102849.53;;;1.82;100.00
54882;BME280;40775;51.448;4.742;2023-04-04T04:52:36;102858.09;;;1.92;100.00
54882;BME280;40775;51.448;4.742;2023-04-04T04:55:05;102853.88;;;1.92;100.00
54882;BME280;40775;51.448;4.742;2023-04-04T04:57:32;102849.44;;;1.91;100.00
54882;BME280;40775;51.448;4.742;2023-04-04T05:00:06;102857.97;;;1.90;100.00
54882;BME280;40775;51.448;4.742;2023-04-04T05:02:33;102866.00;;;1.83;100.00
54882;BME280;40775;51.448;4.742;2023-04-04T05:05:00;102869.22;;;1.80;100.00
54882;BME280;40775;51.448;4.742;2023-04-04T05:07:35;102857.19;;;1.81;100.00
54882;BME280;40775;51.448;4.742;2023-04-04T05:10:03;102861.59;;;1.82;100.00
54882;BME280;40775;51.448;4.742;2023-04-04T05:12:30;102866.50;;;1.79;100.00
54882;BME280;40775;51.448;4.742;2023-04-04T05:14:57;102874.13;;;1.77;100.00
54882;BME280;40775;51.448;4.742;2023-04-04T05:17:24;102868.06;;;1.77;100.00
54882;BME280;40775;51.448;4.742;2023-04-04T05:19:51;102867.28;;;1.78;100.00
54882;BME280;40775;51.448;4.742;2023-04-04T05:22:18;102880.22;;;1.78;100.00
54882;BME280;40775;51.448;4.742;2023-04-04T05:24:46;102875.56;;;1.74;100.00
54882;BME280;40775;51.448;4.742;2023-04-04T05:27:13;102871.03;;;1.71;100.00
54882;BME280;40775;51.448;4.742;2023-04-04T05:29:40;102876.97;;;1.70;100.00
54882;BME280;40775;51.448;4.742;2023-04-04T05:32:07;102868.56;;;1.73;100.00
54882;BME280;40775;51.448;4.742;2023-04-04T05:34:34;102875.41;;;1.72;100.00
54882;BME280;40775;51.448;4.742;2023-04-04T05:37:01;102869.34;;;1.72;100.00
54882;BME280;40775;51.448;4.742;2023-04-04T05:39:28;102869.59;;;1.75;100.00
54882;BME280;40775;51.448;4.742;2023-04-04T05:41:55;102874.78;;;1.75;100.00
54882;BME280;40775;51.448;4.742;2023-04-04T05:44:22;102870.25;;;1.72;100.00
54882;BME280;40775;51.448;4.742;2023-04-04T05:46:49;102863.25;;;4.87;100.00
54882;BME280;40775;51.448;4.742;2023-04-04T05:49:16;102846.78;;;7.59;100.00
54882;BME280;40775;51.448;4.742;2023-04-04T05:51:43;102843.56;;;9.19;100.00
54882;BME280;40775;51.448;4.742;2023-04-04T05:54:10;102837.88;;;10.04;100.00
54882;BME280;40775;51.448;4.742;2023-04-04T05:56:37;102839.56;;;10.51;100.00
54882;BME280;40775;51.448;4.742;2023-04-04T05:59:04;102838.38;;;10.78;100.00
54882;BME280;40775;51.448;4.742;2023-04-04T06:01:31;102846.53;;;11.01;100.00
54882;BME280;40775;51.448;4.742;2023-04-04T06:03:58;102843.00;;;11.18;100.00
54882;BME280;40775;51.448;4.742;2023-04-04T06:06:26;102847.53;;;11.38;100.00
54882;BME280;40775;51.448;4.742;2023-04-04T06:08:53;102855.22;;;11.52;100.00
54882;BME280;40775;51.448;4.742;2023-04-04T06:11:20;102848.78;;;11.64;100.00
54882;BME280;40775;51.448;4.742;2023-04-04T06:13:50;102844.84;;;11.74;100.00
54882;BME280;40775;51.448;4.742;2023-04-04T06:16:18;102862.19;;;11.87;100.00
54882;BME280;40775;51.448;4.742;2023-04-04T06:18:48;102870.50;;;11.96;100.00
54882;BME280;40775;51.448;4.742;2023-04-04T06:21:15;102865.66;;;12.05;100.00
54882;BME280;40775;51.448;4.742;2023-04-04T06:23:42;102859.09;;;12.15;100.00
54882;BME280;40775;51.448;4.742;2023-04-04T06:26:09;102871.66;;;12.20;100.00
54882;BME280;40775;51.448;4.742;2023-04-04T06:28:36;102866.72;;;12.28;100.00
54882;BME280;40775;51.448;4.742;2023-04-04T06:31:06;102873.13;;;12.33;100.00
54882;BME280;40775;51.448;4.742;2023-04-04T06:33:34;102876.88;;;12.38;100.00
54882;BME280;40775;51.448;4.742;2023-04-04T06:36:01;102879.63;;;12.41;100.00
54882;BME280;40775;51.448;4.742;2023-04-04T06:38:28;102880.88;;;12.49;100.00
54882;BME280;40775;51.448;4.742;2023-04-04T06:40:56;102873.94;;;12.51;100.00
54882;BME280;40775;51.448;4.742;2023-04-04T06:43:23;102875.16;;;12.59;100.00
54882;BME280;40775;51.448;4.742;2023-04-04T06:45:50;102878.72;;;12.60;100.00
54882;BME280;40775;51.448;4.742;2023-04-04T06:48:18;102883.38;;;12.65;100.00
54882;BME280;40775;51.448;4.742;2023-04-04T06:50:45;102881.91;;;12.72;100.00
54882;BME280;40775;51.448;4.742;2023-04-04T06:53:12;102885.50;;;12.74;100.00
54882;BME280;40775;51.448;4.742;2023-04-04T06:55:40;102888.41;;;12.80;100.00
54882;BME280;40775;51.448;4.742;2023-04-04T06:58:07;102885.06;;;12.84;100.00
54882;BME280;40775;51.448;4.742;2023-04-04T07:00:34;102882.66;;;12.89;100.00
54882;BME280;40775;51.448;4.742;2023-04-04T07:03:01;102877.44;;;12.90;100.00
54882;BME280;40775;51.448;4.742;2023-04-04T07:05:29;102878.53;;;12.95;100.00
54882;BME280;40775;51.448;4.742;2023-04-04T07:07:56;102874.09;;;12.94;100.00
54882;BME280;40775;51.448;4.742;2023-04-04T07:10:23;102875.13;;;12.98;100.00
54882;BME280;40775;51.448;4.742;2023-04-04T07:12:51;102862.13;;;13.03;100.00
54882;BME280;40775;51.448;4.742;2023-04-04T07:15:18;102875.44;;;13.06;100.00
54882;BME280;40775;51.448;4.742;2023-04-04T07:17:45;102873.00;;;13.10;100.00
54882;BME280;40775;51.448;4.742;2023-04-04T07:20:12;102882.84;;;13.14;100.00
54882;BME280;40775;51.448;4.742;2023-04-04T07:22:40;102879.31;;;13.14;100.00
54882;BME280;40775;51.448;4.742;2023-04-04T07:25:08;102874.13;;;13.15;100.00
54882;BME280;40775;51.448;4.742;2023-04-04T07:27:35;102878.66;;;13.18;100.00
54882;BME280;40775;51.448;4.742;2023-04-04T07:30:03;102882.19;;;13.18;100.00
54882;BME280;40775;51.448;4.742;2023-04-04T07:32:31;102885.81;;;13.20;100.00
54882;BME280;40775;51.448;4.742;2023-04-04T07:34:58;102882.31;;;13.21;100.00
54882;BME280;40775;51.448;4.742;2023-04-04T07:37:25;102884.19;;;13.24;100.00
54882;BME280;40775;51.448;4.742;2023-04-04T07:39:54;102875.56;;;13.28;100.00
54882;BME280;40775;51.448;4.742;2023-04-04T07:42:22;102875.50;;;13.26;100.00
54882;BME280;40775;51.448;4.742;2023-04-04T07:44:50;102872.03;;;13.27;100.00
54882;BME280;40775;51.448;4.742;2023-04-04T07:47:17;102869.50;;;13.30;100.00
54882;BME280;40775;51.448;4.742;2023-04-04T07:49:45;102867.84;;;13.33;100.00
54882;BME280;40775;51.448;4.742;2023-04-04T07:52:12;102864.53;;;13.38;100.00
54882;BME280;40775;51.448;4.742;2023-04-04T07:54:39;102862.81;;;13.39;100.00
54882;BME280;40775;51.448;4.742;2023-04-04T07:57:06;102860.16;;;13.39;100.00
54882;BME280;40775;51.448;4.742;2023-04-04T07:59:36;102857.53;;;13.39;100.00
54882;BME280;40775;51.448;4.742;2023-04-04T08:02:03;102861.00;;;13.38;100.00
54882;BME280;40775;51.448;4.742;2023-04-04T08:04:30;102861.06;;;13.39;100.00
54882;BME280;40775;51.448;4.742;2023-04-04T08:06:57;102859.25;;;13.38;100.00
54882;BME280;40775;51.448;4.742;2023-04-04T08:09:25;102859.38;;;13.41;100.00
54882;BME280;40775;51.448;4.742;2023-04-04T08:11:54;102862.88;;;13.40;100.00
54882;BME280;40775;51.448;4.742;2023-04-04T08:14:21;102863.91;;;13.44;100.00
54882;BME280;40775;51.448;4.742;2023-04-04T08:16:48;102858.66;;;13.44;100.00
54882;BME280;40775;51.448;4.742;2023-04-04T08:19:15;102858.75;;;13.47;100.00
54882;BME280;40775;51.448;4.742;2023-04-04T08:21:42;102862.13;;;13.43;100.00
54882;BME280;40775;51.448;4.742;2023-04-04T08:24:11;102860.38;;;13.43;100.00
54882;BME280;40775;51.448;4.742;2023-04-04T08:26:38;102869.03;;;13.41;100.00
54882;BME280;40775;51.448;4.742;2023-04-04T08:29:05;102865.44;;;13.39;100.00
54882;BME280;40775;51.448;4.742;2023-04-04T08:31:33;102872.66;;;13.43;100.00
54882;BME280;40775;51.448;4.742;2023-04-04T08:34:00;102867.25;;;13.40;100.00
54882;BME280;40775;51.448;4.742;2023-04-04T08:36:34;102866.56;;;13.44;100.00
54882;BME280;40775;51.448;4.742;2023-04-04T08:39:01;102857.81;;;13.45;100.00
54882;BME280;40775;51.448;4.742;2023-04-04T08:41:29;102865.78;;;13.46;100.00
54882;BME280;40775;51.448;4.742;2023-04-04T08:44:02;102856.13;;;13.47;100.00
54882;BME280;40775;51.448;4.742;2023-04-04T08:46:30;102856.06;;;13.45;100.00
54882;BME280;40775;51.448;4.742;2023-04-04T08:48:59;102868.47;;;13.48;100.00
54882;BME280;40775;51.448;4.742;2023-04-04T08:51:29;102860.44;;;13.45;100.00
54882;BME280;40775;51.448;4.742;2023-04-04T08:53:58;102867.47;;;13.44;100.00
54882;BME280;40775;51.448;4.742;2023-04-04T08:56:26;102857.03;;;13.47;100.00
54882;BME280;40775;51.448;4.742;2023-04-04T08:58:54;102858.75;;;13.47;100.00
54882;BME280;40775;51.448;4.742;2023-04-04T09:01:21;102858.75;;;13.47;100.00
54882;BME280;40775;51.448;4.742;2023-04-04T09:03:50;102867.63;;;13.49;100.00
54882;BME280;40775;51.448;4.742;2023-04-04T09:06:19;102876.28;;;13.45;100.00
54882;BME280;40775;51.448;4.742;2023-04-04T09:08:46;102873.69;;;13.46;100.00
54882;BME280;40775;51.448;4.742;2023-04-04T09:11:14;102863.25;;;13.49;100.00
54882;BME280;40775;51.448;4.742;2023-04-04T09:13:44;102861.63;;;13.53;100.00
54882;BME280;40775;51.448;4.742;2023-04-04T09:16:12;102856.38;;;13.53;100.00
54882;BME280;40775;51.448;4.742;2023-04-04T09:18:39;102861.53;;;13.50;100.00
54882;BME280;40775;51.448;4.742;2023-04-04T09:21:10;102863.91;;;13.44;100.00
54882;BME280;40775;51.448;4.742;2023-04-04T09:23:38;102871.78;;;13.42;100.00
54882;BME280;40775;51.448;4.742;2023-04-04T09:26:05;102871.78;;;13.42;100.00
54882;BME280;40775;51.448;4.742;2023-04-04T09:28:33;102868.34;;;13.45;100.00
54882;BME280;40775;51.448;4.742;2023-04-04T09:31:03;102865.72;;;13.45;100.00
54882;BME280;40775;51.448;4.742;2023-04-04T09:33:33;102859.78;;;13.50;100.00
54882;BME280;40775;51.448;4.742;2023-04-04T09:36:07;102863.97;;;13.45;100.00
54882;BME280;40775;51.448;4.742;2023-04-04T09:38:39;102867.41;;;13.43;100.00
54882;BME280;40775;51.448;4.742;2023-04-04T09:41:09;102849.00;;;13.44;100.00
54882;BME280;40775;51.448;4.742;2023-04-04T09:43:39;102857.59;;;13.40;100.00
54882;BME280;40775;51.448;4.742;2023-04-04T09:46:06;102850.72;;;13.44;100.00
54882;BME280;40775;51.448;4.742;2023-04-04T09:48:34;102848.94;;;13.43;100.00
54882;BME280;40775;51.448;4.742;2023-04-04T09:51:10;102843.72;;;13.44;100.00
54882;BME280;40775;51.448;4.742;2023-04-04T09:53:38;102844.34;;;13.39;100.00
54882;BME280;40775;51.448;4.742;2023-04-04T09:56:08;102846.13;;;13.40;100.00
54882;BME280;40775;51.448;4.742;2023-04-04T09:58:35;102841.13;;;13.46;100.00
54882;BME280;40775;51.448;4.742;2023-04-04T10:01:16;102849.81;;;13.43;100.00
54882;BME280;40775;51.448;4.742;2023-04-04T10:03:51;102843.72;;;13.44;100.00
54882;BME280;40775;51.448;4.742;2023-04-04T10:06:20;102836.88;;;13.49;100.00
54882;BME280;40775;51.448;4.742;2023-04-04T10:08:48;102846.00;;;13.57;100.00
54882;BME280;40775;51.448;4.742;2023-04-04T10:11:29;102844.97;;;13.54;100.00
54882;BME280;40775;51.448;4.742;2023-04-04T10:13:58;102825.66;;;13.55;100.00
54882;BME280;40775;51.448;4.742;2023-04-04T10:16:25;102831.06;;;13.58;100.00
54882;BME280;40775;51.448;4.742;2023-04-04T10:18:53;102828.28;;;13.55;100.00
54882;BME280;40775;51.448;4.742;2023-04-04T10:21:20;102833.69;;;13.58;100.00
54882;BME280;40775;51.448;4.742;2023-04-04T10:23:48;102829.97;;;13.53;100.00
54882;BME280;40775;51.448;4.742;2023-04-04T10:26:16;102834.59;;;13.58;100.00
54882;BME280;40775;51.448;4.742;2023-04-04T10:28:43;102828.59;;;13.63;100.00
54882;BME280;40775;51.448;4.742;2023-04-04T10:31:24;102817.00;;;13.59;100.00
54882;BME280;40775;51.448;4.742;2023-04-04T10:36:26;102827.34;;;13.53;100.00
54882;BME280;40775;51.448;4.742;2023-04-04T10:39:13;102818.41;;;13.49;100.00
54882;BME280;40775;51.448;4.742;2023-04-04T10:41:45;102822.97;;;13.53;100.00
54882;BME280;40775;51.448;4.742;2023-04-04T10:44:39;102804.78;;;13.61;100.00
54882;BME280;40775;51.448;4.742;2023-04-04T10:47:20;102809.94;;;13.58;100.00
54882;BME280;40775;51.448;4.742;2023-04-04T10:49:50;102810.84;;;13.58;100.00
54882;BME280;40775;51.448;4.742;2023-04-04T10:52:21;102801.41;;;13.65;100.00
54882;BME280;40775;51.448;4.742;2023-04-04T10:54:56;102796.41;;;13.71;100.00
54882;BME280;40775;51.448;4.742;2023-04-04T10:57:25;102807.66;;;13.67;100.00
54882;BME280;40775;51.448;4.742;2023-04-04T11:00:14;102796.41;;;13.71;100.00
54882;BME280;40775;51.448;4.742;2023-04-04T11:02:59;102806.50;;;13.60;100.00
54882;BME280;40775;51.448;4.742;2023-04-04T11:08:09;102785.16;;;13.54;100.00
54882;BME280;40775;51.448;4.742;2023-04-04T11:10:42;102796.91;;;13.63;100.00
54882;BME280;40775;51.448;4.742;2023-04-04T11:13:17;102785.69;;;13.68;100.00
54882;BME280;40775;51.448;4.742;2023-04-04T11:16:11;102781.25;;;13.67;100.00
54882;BME280;40775;51.448;4.742;2023-04-04T11:21:17;102781.91;;;13.61;100.00
54882;BME280;40775;51.448;4.742;2023-04-04T11:29:22;102774.91;;;13.62;100.00
54882;BME280;40775;51.448;4.742;2023-04-04T11:32:32;102765.56;;;13.70;100.00
54882;BME280;40775;51.448;4.742;2023-04-04T11:34:59;102768.91;;;13.66;100.00
54882;BME280;40775;51.448;4.742;2023-04-04T11:37:30;102767.94;;;13.64;100.00
54882;BME280;40775;51.448;4.742;2023-04-04T11:40:08;102771.13;;;13.78;100.00
54882;BME280;40775;51.448;4.742;2023-04-04T11:42:37;102763.94;;;13.74;100.00
54882;BME280;40775;51.448;4.742;2023-04-04T11:45:06;102755.97;;;13.72;100.00
54882;BME280;40775;51.448;4.742;2023-04-04T11:47:35;102762.13;;;13.73;100.00
54882;BME280;40775;51.448;4.742;2023-04-04T11:50:08;102749.94;;;13.76;100.00
54882;BME280;40775;51.448;4.742;2023-04-04T11:52:36;102758.09;;;13.82;100.00
54882;BME280;40775;51.448;4.742;2023-04-04T11:55:17;102744.06;;;13.83;100.00
54882;BME280;40775;51.448;4.742;2023-04-04T11:57:46;102747.53;;;13.82;100.00
54882;BME280;40775;51.448;4.742;2023-04-04T12:00:33;102737.03;;;13.84;100.00
54882;BME280;40775;51.448;4.742;2023-04-04T12:03:04;102730.75;;;13.80;100.00
54882;BME280;40775;51.448;4.742;2023-04-04T12:05:33;102741.28;;;13.80;100.00
54882;BME280;40775;51.448;4.742;2023-04-04T12:08:01;102733.31;;;13.79;100.00
54882;BME280;40775;51.448;4.742;2023-04-04T12:10:34;102737.13;;;13.87;100.00
54882;BME280;40775;51.448;4.742;2023-04-04T12:13:05;102735.50;;;13.90;100.00
54882;BME280;40775;51.448;4.742;2023-04-04T12:15:34;102745.69;;;13.80;100.00
54882;BME280;40775;51.448;4.742;2023-04-04T12:18:06;102729.69;;;13.75;100.00
54882;BME280;40775;51.448;4.742;2023-04-04T12:20:37;102721.03;;;13.79;100.00
54882;BME280;40775;51.448;4.742;2023-04-04T12:23:04;102718.38;;;13.79;100.00
54882;BME280;40775;51.448;4.742;2023-04-04T12:25:32;102717.69;;;13.85;100.00
54882;BME280;40775;51.448;4.742;2023-04-04T12:28:01;102715.38;;;13.94;100.00
54882;BME280;40775;51.448;4.742;2023-04-04T12:30:30;102718.22;;;13.99;100.00
54882;BME280;40775;51.448;4.742;2023-04-04T12:32:58;102705.06;;;14.00;100.00
54882;BME280;40775;51.448;4.742;2023-04-04T12:35:25;102709.56;;;14.03;100.00
54882;BME280;40775;51.448;4.742;2023-04-04T12:38:01;102708.31;;;13.93;100.00
54882;BME280;40775;51.448;4.742;2023-04-04T12:40:31;102704.97;;;13.97;100.00
54882;BME280;40775;51.448;4.742;2023-04-04T12:42:59;102703.88;;;13.92;100.00
54882;BME280;40775;51.448;4.742;2023-04-04T12:45:28;102707.53;;;13.96;100.00
54882;BME280;40775;51.448;4.742;2023-04-04T12:47:55;102698.16;;;14.04;100.00
54882;BME280;40775;51.448;4.742;2023-04-04T12:50:26;102698.31;;;14.08;100.00
54882;BME280;40775;51.448;4.742;2023-04-04T12:52:54;102691.06;;;14.03;100.00
54882;BME280;40775;51.448;4.742;2023-04-04T12:55:46;102675.38;;;14.07;100.00
54882;BME280;40775;51.448;4.742;2023-04-04T12:58:20;102690.44;;;14.10;100.00
54882;BME280;40775;51.448;4.742;2023-04-04T13:00:51;102685.16;;;14.10;100.00
54882;BME280;40775;51.448;4.742;2023-04-04T13:03:21;102682.47;;;14.08;100.00
54882;BME280;40775;51.448;4.742;2023-04-04T13:05:49;102672.75;;;14.07;100.00
54882;BME280;40775;51.448;4.742;2023-04-04T13:08:18;102659.44;;;14.04;100.00
54882;BME280;40775;51.448;4.742;2023-04-04T13:10:56;102670.00;;;14.04;100.00